createdAt,value
2018-03-01T00:00:47.743Z,996.82
2018-03-01T00:01:53.087Z,996.82
2018-03-01T00:02:58.925Z,996.78
2018-03-01T00:04:04.758Z,996.72
2018-03-01T00:05:10.583Z,996.71
2018-03-01T00:06:16.419Z,996.73
2018-03-01T00:07:22.270Z,996.72
2018-03-01T00:08:28.117Z,996.71
2018-03-01T00:09:34.430Z,996.72
2018-03-01T00:10:40.270Z,996.68
2018-03-01T00:11:45.636Z,996.72
2018-03-01T00:12:51.450Z,996.66
2018-03-01T00:13:57.784Z,996.69
2018-03-01T00:15:03.614Z,996.62
2018-03-01T00:16:08.978Z,996.59
2018-03-01T00:17:14.843Z,996.61
2018-03-01T00:18:21.152Z,996.52
2018-03-01T00:19:26.513Z,996.56
2018-03-01T00:20:32.339Z,996.51
2018-03-01T00:21:38.197Z,996.50
2018-03-01T00:22:44.023Z,996.51
2018-03-01T00:23:49.937Z,996.55
2018-03-01T00:24:55.675Z,996.51
2018-03-01T00:26:01.520Z,996.49
2018-03-01T00:27:07.967Z,996.60
2018-03-01T00:28:13.687Z,996.58
2018-03-01T00:29:19.536Z,996.62
2018-03-01T00:30:24.890Z,996.62
2018-03-01T00:31:30.720Z,996.66
2018-03-01T00:32:36.625Z,996.64
2018-03-01T00:33:42.415Z,996.64
2018-03-01T00:34:48.242Z,996.69
2018-03-01T00:35:54.076Z,996.65
2018-03-01T00:36:59.938Z,996.55
2018-03-01T00:38:05.754Z,996.53
2018-03-01T00:39:12.112Z,996.51
2018-03-01T00:40:17.926Z,996.51
2018-03-01T00:41:23.778Z,996.47
2018-03-01T00:42:29.152Z,996.39
2018-03-01T00:43:35.465Z,996.36
2018-03-01T00:44:40.798Z,996.32
2018-03-01T00:45:46.635Z,996.32
2018-03-01T00:46:54.024Z,996.23
2018-03-01T00:47:58.805Z,996.16
2018-03-01T00:49:04.151Z,996.14
2018-03-01T00:50:09.985Z,996.15
2018-03-01T00:51:16.308Z,996.07
2018-03-01T00:52:22.183Z,996.05
2018-03-01T00:53:27.989Z,995.98
2018-03-01T00:54:33.822Z,995.98
2018-03-01T00:55:39.670Z,995.98
2018-03-01T00:56:45.514Z,996.00
2018-03-01T00:57:50.855Z,996.01
2018-03-01T00:58:56.681Z,995.94
2018-03-01T01:00:03.004Z,996.07
2018-03-01T01:01:08.356Z,996.00
2018-03-01T01:02:14.199Z,995.96
2018-03-01T01:03:20.007Z,995.90
2018-03-01T01:04:26.345Z,995.94
2018-03-01T01:05:32.172Z,995.99
2018-03-01T01:06:38.008Z,996.01
2018-03-01T01:07:43.955Z,996.03
2018-03-01T01:08:49.192Z,996.03
2018-03-01T01:09:55.523Z,996.06
2018-03-01T01:11:00.866Z,996.07
2018-03-01T01:12:07.273Z,996.13
2018-03-01T01:13:12.545Z,996.16
2018-03-01T01:14:18.387Z,996.21
2018-03-01T01:15:24.220Z,996.20
2018-03-01T01:16:30.060Z,996.23
2018-03-01T01:17:36.417Z,996.20
2018-03-01T01:18:41.742Z,996.30
2018-03-01T01:19:47.565Z,996.27
2018-03-01T01:20:53.415Z,996.25
2018-03-01T01:21:59.283Z,996.21
2018-03-01T01:23:05.097Z,996.15
2018-03-01T01:24:10.949Z,996.15
2018-03-01T01:25:16.788Z,996.07
2018-03-01T01:26:23.114Z,996.11
2018-03-01T01:27:28.508Z,996.10
2018-03-01T01:28:34.322Z,996.09
2018-03-01T01:29:40.646Z,996.06
2018-03-01T01:30:46.007Z,996.06
2018-03-01T01:31:52.365Z,996.06
2018-03-01T01:32:58.234Z,995.99
2018-03-01T01:34:03.541Z,995.93
2018-03-01T01:35:09.419Z,995.95
2018-03-01T01:36:15.740Z,995.97
2018-03-01T01:37:21.146Z,995.93
2018-03-01T01:38:26.922Z,995.85
2018-03-01T01:39:33.272Z,995.87
2018-03-01T01:40:39.158Z,995.88
2018-03-01T01:41:44.529Z,995.84
2018-03-01T01:42:50.839Z,995.75
2018-03-01T01:43:56.212Z,995.85
2018-03-01T01:45:02.546Z,995.76
2018-03-01T01:46:08.395Z,995.82
2018-03-01T01:47:13.759Z,995.83
2018-03-01T01:48:19.613Z,995.85
2018-03-01T01:49:25.420Z,995.89
2018-03-01T01:50:31.273Z,995.87
2018-03-01T01:51:37.128Z,995.91
2018-03-01T01:52:43.513Z,995.91
2018-03-01T01:53:49.353Z,995.97
2018-03-01T01:54:54.676Z,995.92
2018-03-01T01:56:00.521Z,995.93
2018-03-01T01:57:06.365Z,995.88
2018-03-01T01:58:12.692Z,995.86
2018-03-01T01:59:18.015Z,995.90
2018-03-01T02:00:23.901Z,995.80
2018-03-01T02:01:29.707Z,995.76
2018-03-01T02:02:35.625Z,995.81
2018-03-01T02:03:41.422Z,995.78
2018-03-01T02:04:47.748Z,995.79
2018-03-01T02:05:53.083Z,995.77
2018-03-01T02:06:59.448Z,995.76
2018-03-01T02:08:05.321Z,995.73
2018-03-01T02:09:10.612Z,995.72
2018-03-01T02:10:16.440Z,995.74
2018-03-01T02:11:22.834Z,995.71
2018-03-01T02:12:28.686Z,995.71
2018-03-01T02:13:33.926Z,995.73
2018-03-01T02:14:39.815Z,995.69
2018-03-01T02:15:46.128Z,995.69
2018-03-01T02:16:51.961Z,995.68
2018-03-01T02:17:57.337Z,995.66
2018-03-01T02:19:03.637Z,995.66
2018-03-01T02:20:09.463Z,995.62
2018-03-01T02:21:15.346Z,995.60
2018-03-01T02:22:20.683Z,995.55
2018-03-01T02:23:26.485Z,995.51
2018-03-01T02:24:32.320Z,995.51
2018-03-01T02:25:38.171Z,995.49
2018-03-01T02:26:44.007Z,995.46
2018-03-01T02:27:49.970Z,995.42
2018-03-01T02:28:55.676Z,995.39
2018-03-01T02:30:01.523Z,995.39
2018-03-01T02:31:07.396Z,995.38
2018-03-01T02:32:13.753Z,995.34
2018-03-01T02:33:19.054Z,995.27
2018-03-01T02:34:24.969Z,995.32
2018-03-01T02:35:30.740Z,995.28
2018-03-01T02:36:37.132Z,995.26
2018-03-01T02:37:42.476Z,995.26
2018-03-01T02:38:48.292Z,995.09
2018-03-01T02:39:54.635Z,995.15
2018-03-01T02:40:59.981Z,995.17
2018-03-01T02:42:05.784Z,995.18
2018-03-01T02:43:11.680Z,995.17
2018-03-01T02:44:17.966Z,995.18
2018-03-01T02:45:23.311Z,995.22
2018-03-01T02:46:29.164Z,995.14
2018-03-01T02:47:35.045Z,995.10
2018-03-01T02:48:40.888Z,995.05
2018-03-01T02:49:46.701Z,995.03
2018-03-01T02:50:52.574Z,995.03
2018-03-01T02:51:58.394Z,995.01
2018-03-01T02:53:04.818Z,994.99
2018-03-01T02:54:10.657Z,995.03
2018-03-01T02:55:15.933Z,995.00
2018-03-01T02:56:21.790Z,994.98
2018-03-01T02:57:28.193Z,995.01
2018-03-01T02:58:33.963Z,995.02
2018-03-01T02:59:39.321Z,995.02
2018-03-01T03:00:45.695Z,994.97
2018-03-01T03:01:51.015Z,994.94
2018-03-01T03:02:57.372Z,994.96
2018-03-01T03:04:03.259Z,994.89
2018-03-01T03:05:08.551Z,994.92
2018-03-01T03:06:14.888Z,994.86
2018-03-01T03:07:20.319Z,994.87
2018-03-01T03:08:26.587Z,994.77
2018-03-01T03:09:32.456Z,994.82
2018-03-01T03:10:38.320Z,994.76
2018-03-01T03:11:43.634Z,994.67
2018-03-01T03:12:50.011Z,994.63
2018-03-01T03:13:55.848Z,994.55
2018-03-01T03:15:01.693Z,994.47
2018-03-01T03:16:07.040Z,994.42
2018-03-01T03:17:13.381Z,994.37
2018-03-01T03:18:19.219Z,994.34
2018-03-01T03:19:25.061Z,994.33
2018-03-01T03:20:30.917Z,994.30
2018-03-01T03:21:36.280Z,994.31
2018-03-01T03:22:42.637Z,994.32
2018-03-01T03:23:47.941Z,994.29
2018-03-01T03:24:54.295Z,994.18
2018-03-01T03:25:59.627Z,994.23
2018-03-01T03:27:05.540Z,994.22
2018-03-01T03:28:11.975Z,994.18
2018-03-01T03:29:17.198Z,994.12
2018-03-01T03:30:23.511Z,994.15
2018-03-01T03:31:29.407Z,994.08
2018-03-01T03:32:35.260Z,994.11
2018-03-01T03:33:41.099Z,994.11
2018-03-01T03:34:46.418Z,994.15
2018-03-01T03:35:52.767Z,994.01
2018-03-01T03:36:58.128Z,994.03
2018-03-01T03:38:03.995Z,994.00
2018-03-01T03:39:10.324Z,994.00
2018-03-01T03:40:15.685Z,994.01
2018-03-01T03:41:21.524Z,994.04
2018-03-01T03:42:27.935Z,994.02
2018-03-01T03:43:33.273Z,994.08
2018-03-01T03:44:39.558Z,994.08
2018-03-01T03:45:44.921Z,994.05
2018-03-01T03:46:50.767Z,994.06
2018-03-01T03:47:56.644Z,994.09
2018-03-01T03:49:02.489Z,994.10
2018-03-01T03:50:08.330Z,994.10
2018-03-01T03:51:14.196Z,994.04
2018-03-01T03:52:20.025Z,994.09
2018-03-01T03:53:25.957Z,994.09
2018-03-01T03:54:31.710Z,994.05
2018-03-01T03:55:38.057Z,993.99
2018-03-01T03:56:43.421Z,994.00
2018-03-01T03:57:49.269Z,993.90
2018-03-01T03:58:55.624Z,993.91
2018-03-01T04:00:01.445Z,993.87
2018-03-01T04:01:06.788Z,993.87
2018-03-01T04:02:13.131Z,993.86
2018-03-01T04:03:19.008Z,993.84
2018-03-01T04:04:24.846Z,993.84
2018-03-01T04:05:30.183Z,993.78
2018-03-01T04:06:36.532Z,993.76
2018-03-01T04:07:41.881Z,993.70
2018-03-01T04:08:48.240Z,993.68
2018-03-01T04:09:53.617Z,993.69
2018-03-01T04:10:59.917Z,993.66
2018-03-01T04:12:05.273Z,993.66
2018-03-01T04:13:11.692Z,993.70
2018-03-01T04:14:16.967Z,993.73
2018-03-01T04:15:22.814Z,993.73
2018-03-01T04:16:28.669Z,993.74
2018-03-01T04:17:34.522Z,993.73
2018-03-01T04:18:40.886Z,993.74
2018-03-01T04:19:46.703Z,993.71
2018-03-01T04:20:52.536Z,993.63
2018-03-01T04:21:58.396Z,993.59
2018-03-01T04:23:03.741Z,993.54
2018-03-01T04:24:10.101Z,993.48
2018-03-01T04:25:15.923Z,993.45
2018-03-01T04:26:21.271Z,993.45
2018-03-01T04:27:27.101Z,993.49
2018-03-01T04:28:32.972Z,993.41
2018-03-01T04:29:38.786Z,993.49
2018-03-01T04:30:45.123Z,993.48
2018-03-01T04:31:50.467Z,993.46
2018-03-01T04:32:56.490Z,993.43
2018-03-01T04:34:02.665Z,993.47
2018-03-01T04:35:07.972Z,993.38
2018-03-01T04:36:13.814Z,993.41
2018-03-01T04:37:20.139Z,993.41
2018-03-01T04:38:25.998Z,993.40
2018-03-01T04:39:31.330Z,993.40
2018-03-01T04:40:37.162Z,993.39
2018-03-01T04:41:43.489Z,993.37
2018-03-01T04:42:48.823Z,993.39
2018-03-01T04:43:55.188Z,993.38
2018-03-01T04:45:00.974Z,993.36
2018-03-01T04:46:06.332Z,993.38
2018-03-01T04:47:12.150Z,993.44
2018-03-01T04:48:18.498Z,993.43
2018-03-01T04:49:23.811Z,993.40
2018-03-01T04:50:30.138Z,993.36
2018-03-01T04:51:35.973Z,993.37
2018-03-01T04:52:41.299Z,993.33
2018-03-01T04:53:47.653Z,993.31
2018-03-01T04:54:52.960Z,993.26
2018-03-01T04:55:59.294Z,993.25
2018-03-01T04:57:04.638Z,993.24
2018-03-01T04:58:10.456Z,993.24
2018-03-01T04:59:16.305Z,993.20
2018-03-01T05:00:22.115Z,993.19
2018-03-01T05:01:27.932Z,993.18
2018-03-01T05:02:34.262Z,993.17
2018-03-01T05:03:40.115Z,993.20
2018-03-01T05:04:45.420Z,993.21
2018-03-01T05:05:51.250Z,993.17
2018-03-01T05:06:57.579Z,993.21
2018-03-01T05:08:02.907Z,993.16
2018-03-01T05:09:09.239Z,993.11
2018-03-01T05:10:15.067Z,993.13
2018-03-01T05:11:20.394Z,993.12
2018-03-01T05:12:26.221Z,993.18
2018-03-01T05:13:32.062Z,993.15
2018-03-01T05:14:37.947Z,993.13
2018-03-01T05:15:44.186Z,993.14
2018-03-01T05:16:50.006Z,993.14
2018-03-01T05:17:55.922Z,993.08
2018-03-01T05:19:01.189Z,993.07
2018-03-01T05:20:07.000Z,993.06
2018-03-01T05:21:13.322Z,993.02
2018-03-01T05:22:19.156Z,993.08
2018-03-01T05:23:24.998Z,993.05
2018-03-01T05:24:30.806Z,993.06
2018-03-01T05:25:36.176Z,993.04
2018-03-01T05:26:42.466Z,993.01
2018-03-01T05:27:48.310Z,993.06
2018-03-01T05:28:53.673Z,993.05
2018-03-01T05:29:59.486Z,993.07
2018-03-01T05:31:05.817Z,993.05
2018-03-01T05:32:11.144Z,993.04
2018-03-01T05:33:17.495Z,993.05
2018-03-01T05:34:22.848Z,993.03
2018-03-01T05:35:29.153Z,993.08
2018-03-01T05:36:34.501Z,993.08
2018-03-01T05:37:40.840Z,993.05
2018-03-01T05:38:46.688Z,993.04
2018-03-01T05:39:52.015Z,993.09
2018-03-01T05:40:58.340Z,993.08
2018-03-01T05:42:03.683Z,993.06
2018-03-01T05:43:09.537Z,993.07
2018-03-01T05:44:15.959Z,993.10
2018-03-01T05:45:21.205Z,993.09
2018-03-01T05:46:27.550Z,993.09
2018-03-01T05:47:32.920Z,993.07
2018-03-01T05:48:39.257Z,993.07
2018-03-01T05:49:44.562Z,993.05
2018-03-01T05:50:50.381Z,993.07
2018-03-01T05:51:56.220Z,993.10
2018-03-01T05:53:02.553Z,993.05
2018-03-01T05:54:07.938Z,993.08
2018-03-01T05:55:13.748Z,993.11
2018-03-01T05:56:20.090Z,993.09
2018-03-01T05:57:25.433Z,993.09
2018-03-01T05:58:31.264Z,993.04
2018-03-01T05:59:37.623Z,993.02
2018-03-01T06:00:42.952Z,993.05
2018-03-01T06:01:48.791Z,993.03
2018-03-01T06:02:54.627Z,993.03
2018-03-01T06:04:00.499Z,993.03
2018-03-01T06:05:07.808Z,993.03
2018-03-01T06:06:12.659Z,993.03
2018-03-01T06:07:18.504Z,993.02
2018-03-01T06:08:23.954Z,993.08
2018-03-01T06:09:30.248Z,993.09
2018-03-01T06:10:35.534Z,993.11
2018-03-01T06:11:41.382Z,993.08
2018-03-01T06:12:47.725Z,993.08
2018-03-01T06:13:53.576Z,993.11
2018-03-01T06:14:58.949Z,993.06
2018-03-01T06:16:05.300Z,993.04
2018-03-01T06:17:10.630Z,993.03
2018-03-01T06:18:16.957Z,993.08
2018-03-01T06:19:22.321Z,993.07
2018-03-01T06:20:28.680Z,993.10
2018-03-01T06:21:34.503Z,993.13
2018-03-01T06:22:39.949Z,993.20
2018-03-01T06:23:45.722Z,993.20
2018-03-01T06:24:51.585Z,993.19
2018-03-01T06:25:57.418Z,993.22
2018-03-01T06:27:03.283Z,993.17
2018-03-01T06:28:09.142Z,993.16
2018-03-01T06:29:14.972Z,993.20
2018-03-01T06:30:21.350Z,993.07
2018-03-01T06:31:26.678Z,993.08
2018-03-01T06:32:32.598Z,993.10
2018-03-01T06:33:38.888Z,993.10
2018-03-01T06:34:44.248Z,993.15
2018-03-01T06:35:50.125Z,993.12
2018-03-01T06:36:56.461Z,993.13
2018-03-01T06:38:02.330Z,993.14
2018-03-01T06:39:08.173Z,993.12
2018-03-01T06:40:14.076Z,993.05
2018-03-01T06:41:19.932Z,993.06
2018-03-01T06:42:25.260Z,993.03
2018-03-01T06:43:31.163Z,993.05
2018-03-01T06:44:36.988Z,993.08
2018-03-01T06:45:42.888Z,993.05
2018-03-01T06:46:49.229Z,993.04
2018-03-01T06:47:55.084Z,993.06
2018-03-01T06:49:00.967Z,993.05
2018-03-01T06:50:06.334Z,992.98
2018-03-01T06:51:12.246Z,993.00
2018-03-01T06:52:18.062Z,993.02
2018-03-01T06:53:24.620Z,992.98
2018-03-01T06:54:30.303Z,992.94
2018-03-01T06:55:36.206Z,992.93
2018-03-01T06:56:42.049Z,992.88
2018-03-01T06:57:47.439Z,992.87
2018-03-01T06:58:53.297Z,992.89
2018-03-01T06:59:59.655Z,992.91
2018-03-01T07:01:05.561Z,992.93
2018-03-01T07:02:11.405Z,992.93
2018-03-01T07:03:16.798Z,992.95
2018-03-01T07:04:23.160Z,992.90
2018-03-01T07:05:28.538Z,992.85
2018-03-01T07:06:34.971Z,992.81
2018-03-01T07:07:40.302Z,992.79
2018-03-01T07:08:46.697Z,992.74
2018-03-01T07:09:52.585Z,992.67
2018-03-01T07:10:58.007Z,992.69
2018-03-01T07:12:03.943Z,992.66
2018-03-01T07:13:09.784Z,992.60
2018-03-01T07:14:15.659Z,992.61
2018-03-01T07:15:22.060Z,992.64
2018-03-01T07:16:27.986Z,992.67
2018-03-01T07:17:33.363Z,992.68
2018-03-01T07:18:39.263Z,992.73
2018-03-01T07:19:45.653Z,992.71
2018-03-01T07:20:51.053Z,992.73
2018-03-01T07:21:56.977Z,992.81
2018-03-01T07:23:03.323Z,992.77
2018-03-01T07:24:08.733Z,992.73
2018-03-01T07:25:15.129Z,992.63
2018-03-01T07:26:20.558Z,992.62
2018-03-01T07:27:26.910Z,992.59
2018-03-01T07:28:32.314Z,992.55
2018-03-01T07:29:38.699Z,992.55
2018-03-01T07:30:44.609Z,992.56
2018-03-01T07:31:50.044Z,992.63
2018-03-01T07:32:56.437Z,992.61
2018-03-01T07:34:02.316Z,992.62
2018-03-01T07:35:08.224Z,992.58
2018-03-01T07:36:13.634Z,992.59
2018-03-01T07:37:19.566Z,992.59
2018-03-01T07:38:25.940Z,992.58
2018-03-01T07:39:31.363Z,992.54
2018-03-01T07:40:37.253Z,992.55
2018-03-01T07:41:43.194Z,992.48
2018-03-01T07:42:49.600Z,992.44
2018-03-01T07:43:55.486Z,992.47
2018-03-01T07:45:00.890Z,992.46
2018-03-01T07:46:07.308Z,992.44
2018-03-01T07:47:13.225Z,992.41
2018-03-01T07:48:18.647Z,992.45
2018-03-01T07:49:25.054Z,992.42
2018-03-01T07:50:30.454Z,992.36
2018-03-01T07:51:36.888Z,992.36
2018-03-01T07:52:42.847Z,992.30
2018-03-01T07:53:48.717Z,992.32
2018-03-01T07:54:54.135Z,992.27
2018-03-01T07:56:00.553Z,992.32
2018-03-01T07:57:05.967Z,992.36
2018-03-01T07:58:11.971Z,992.36
2018-03-01T08:00:23.734Z,992.30
2018-03-01T08:01:30.132Z,992.28
2018-03-01T08:02:35.559Z,992.32
2018-03-01T08:03:41.497Z,992.29
2018-03-01T08:04:47.412Z,992.28
2018-03-01T08:05:53.300Z,992.28
2018-03-01T08:06:59.718Z,992.33
2018-03-01T08:08:05.154Z,992.33
2018-03-01T08:09:11.090Z,992.25
2018-03-01T08:10:16.974Z,992.22
2018-03-01T08:11:22.886Z,992.29
2018-03-01T08:12:28.800Z,992.33
2018-03-01T08:13:34.732Z,992.21
2018-03-01T08:14:40.635Z,992.18
2018-03-01T08:15:46.542Z,992.18
2018-03-01T08:16:52.952Z,992.20
2018-03-01T08:17:58.384Z,992.17
2018-03-01T08:19:04.310Z,992.20
2018-03-01T08:20:10.203Z,992.17
2018-03-01T08:21:16.125Z,992.08
2018-03-01T08:22:22.551Z,992.13
2018-03-01T08:23:27.972Z,992.13
2018-03-01T08:24:34.401Z,992.11
2018-03-01T08:25:40.329Z,992.07
2018-03-01T08:26:46.235Z,992.06
2018-03-01T08:27:51.657Z,992.06
2018-03-01T08:28:57.622Z,992.06
2018-03-01T08:30:03.518Z,992.02
2018-03-01T08:31:09.447Z,991.86
2018-03-01T08:32:15.382Z,991.88
2018-03-01T08:33:21.300Z,991.81
2018-03-01T08:34:27.253Z,991.90
2018-03-01T08:35:33.655Z,991.89
2018-03-01T08:36:39.599Z,991.86
2018-03-01T08:37:45.031Z,991.74
2018-03-01T08:38:51.462Z,991.78
2018-03-01T08:39:57.419Z,991.75
2018-03-01T08:41:02.849Z,991.75
2018-03-01T08:42:08.813Z,991.80
2018-03-01T08:43:15.228Z,991.78
2018-03-01T08:44:21.198Z,991.73
2018-03-01T08:45:28.105Z,991.72
2018-03-01T08:46:32.562Z,991.68
2018-03-01T08:47:39.010Z,991.66
2018-03-01T08:48:45.018Z,991.76
2018-03-01T08:49:50.435Z,991.69
2018-03-01T08:50:56.361Z,991.63
2018-03-01T08:52:02.317Z,991.64
2018-03-01T08:53:08.282Z,991.61
2018-03-01T08:54:14.233Z,991.59
2018-03-01T08:55:20.706Z,991.64
2018-03-01T08:56:26.644Z,991.59
2018-03-01T08:57:32.112Z,991.50
2018-03-01T08:58:38.074Z,991.52
2018-03-01T08:59:44.550Z,991.42
2018-03-01T09:00:49.993Z,991.34
2018-03-01T09:01:56.447Z,991.49
2018-03-01T09:03:02.405Z,991.45
2018-03-01T09:04:07.880Z,991.54
2018-03-01T09:05:13.964Z,991.51
2018-03-01T09:06:19.802Z,991.56
2018-03-01T09:07:25.757Z,991.52
2018-03-01T09:08:31.719Z,991.51
2018-03-01T09:09:37.692Z,991.49
2018-03-01T09:10:43.684Z,991.45
2018-03-01T09:11:49.635Z,991.44
2018-03-01T09:12:56.102Z,991.50
2018-03-01T09:14:01.570Z,991.44
2018-03-01T09:15:07.570Z,991.43
2018-03-01T09:16:14.037Z,991.38
2018-03-01T09:17:19.507Z,991.34
2018-03-01T09:18:25.989Z,991.40
2018-03-01T09:19:31.491Z,991.39
2018-03-01T09:20:38.006Z,991.40
2018-03-01T09:21:43.972Z,991.38
2018-03-01T09:22:49.482Z,991.28
2018-03-01T09:23:55.482Z,991.39
2018-03-01T09:25:02.011Z,991.39
2018-03-01T09:26:07.484Z,991.36
2018-03-01T09:27:13.973Z,991.38
2018-03-01T09:28:19.986Z,991.36
2018-03-01T09:29:25.504Z,991.37
2018-03-01T09:30:32.048Z,991.39
2018-03-01T09:31:38.024Z,991.35
2018-03-01T09:32:43.511Z,991.34
2018-03-01T09:33:49.509Z,991.33
2018-03-01T09:34:55.554Z,991.30
2018-03-01T09:36:02.035Z,991.20
2018-03-01T09:37:08.095Z,991.20
2018-03-01T09:38:13.541Z,991.11
2018-03-01T09:39:19.563Z,991.24
2018-03-01T09:40:25.571Z,991.18
2018-03-01T09:41:31.552Z,991.13
2018-03-01T09:42:37.557Z,991.11
2018-03-01T09:43:44.069Z,991.11
2018-03-01T09:44:50.077Z,991.09
2018-03-01T09:45:55.561Z,991.06
2018-03-01T09:47:01.553Z,991.02
2018-03-01T09:48:08.036Z,991.05
2018-03-01T09:49:13.547Z,991.00
2018-03-01T09:50:20.061Z,991.00
2018-03-01T09:51:25.550Z,991.04
2018-03-01T09:52:32.026Z,990.99
2018-03-01T09:53:37.542Z,991.02
2018-03-01T09:54:44.034Z,991.07
2018-03-01T09:55:49.553Z,991.05
2018-03-01T09:56:56.016Z,991.09
2018-03-01T09:58:01.572Z,991.01
2018-03-01T09:59:07.540Z,991.06
2018-03-01T10:00:13.550Z,990.94
2018-03-01T10:01:19.525Z,990.92
2018-03-01T10:02:26.012Z,990.94
2018-03-01T10:03:31.526Z,990.85
2018-03-01T10:04:37.522Z,990.76
2018-03-01T10:05:43.560Z,990.72
2018-03-01T10:06:49.521Z,990.65
2018-03-01T10:07:56.039Z,990.69
2018-03-01T10:09:02.041Z,990.70
2018-03-01T10:10:08.068Z,990.66
2018-03-01T10:11:14.036Z,990.67
2018-03-01T10:12:20.045Z,990.65
2018-03-01T10:13:25.551Z,990.63
2018-03-01T10:14:31.607Z,990.63
2018-03-01T10:15:37.619Z,990.59
2018-03-01T10:16:44.055Z,990.55
2018-03-01T10:17:49.582Z,990.61
2018-03-01T10:18:56.075Z,990.55
2018-03-01T10:20:02.127Z,990.65
2018-03-01T10:21:08.095Z,990.57
2018-03-01T10:22:13.615Z,990.57
2018-03-01T10:23:19.623Z,990.48
2018-03-01T10:24:26.119Z,990.54
2018-03-01T10:25:31.659Z,990.40
2018-03-01T10:26:38.151Z,990.38
2018-03-01T10:27:43.662Z,990.46
2018-03-01T10:28:49.687Z,990.49
2018-03-01T10:29:56.225Z,990.46
2018-03-01T10:31:01.705Z,990.37
2018-03-01T10:32:08.224Z,990.38
2018-03-01T10:33:13.775Z,990.38
2018-03-01T10:34:19.746Z,990.42
2018-03-01T10:35:25.789Z,990.33
2018-03-01T10:36:31.787Z,990.41
2018-03-01T10:37:38.000Z,990.24
2018-03-01T10:38:44.319Z,990.31
2018-03-01T10:39:49.933Z,990.27
2018-03-01T10:40:55.893Z,990.29
2018-03-01T10:42:02.390Z,990.25
2018-03-01T10:43:07.916Z,990.26
2018-03-01T10:44:13.962Z,990.35
2018-03-01T10:45:21.007Z,990.32
2018-03-01T10:46:26.009Z,990.28
2018-03-01T10:47:33.555Z,990.28
2018-03-01T10:48:38.066Z,990.24
2018-03-01T10:49:44.605Z,990.26
2018-03-01T10:50:50.151Z,990.22
2018-03-01T10:51:56.158Z,990.19
2018-03-01T10:53:02.678Z,990.26
2018-03-01T10:54:08.231Z,990.20
2018-03-01T10:55:14.266Z,990.08
2018-03-01T10:56:20.295Z,990.05
2018-03-01T10:57:26.809Z,990.13
2018-03-01T10:58:32.850Z,990.06
2018-03-01T10:59:38.908Z,990.01
2018-03-01T11:00:44.437Z,990.07
2018-03-01T11:01:50.459Z,989.99
2018-03-01T11:02:56.497Z,989.92
2018-03-01T11:04:02.533Z,989.83
2018-03-01T11:05:08.672Z,989.93
2018-03-01T11:06:14.623Z,989.82
2018-03-01T11:07:20.652Z,989.90
2018-03-01T11:08:27.193Z,989.79
2018-03-01T11:09:33.239Z,989.80
2018-03-01T11:10:38.812Z,989.88
2018-03-01T11:11:44.824Z,989.82
2018-03-01T11:12:50.870Z,989.85
2018-03-01T11:13:57.405Z,989.85
2018-03-01T11:15:02.966Z,989.85
2018-03-01T11:16:09.526Z,989.82
2018-03-01T11:17:15.627Z,989.77
2018-03-01T11:18:21.624Z,989.78
2018-03-01T11:19:27.682Z,989.72
2018-03-01T11:20:33.248Z,989.70
2018-03-01T11:21:39.772Z,989.68
2018-03-01T11:22:45.827Z,989.60
2018-03-01T11:23:51.386Z,989.66
2018-03-01T11:24:57.930Z,989.60
2018-03-01T11:26:03.514Z,989.60
2018-03-01T11:27:09.548Z,989.51
2018-03-01T11:28:15.620Z,989.45
2018-03-01T11:29:21.646Z,989.45
2018-03-01T11:30:28.225Z,989.47
2018-03-01T11:31:34.272Z,989.40
2018-03-01T11:32:39.817Z,989.50
2018-03-01T11:33:45.944Z,989.43
2018-03-01T11:34:51.950Z,989.41
2018-03-01T11:35:58.034Z,989.32
2018-03-01T11:37:04.051Z,989.38
2018-03-01T11:38:10.611Z,989.37
2018-03-01T11:39:16.689Z,989.34
2018-03-01T11:40:22.773Z,989.42
2018-03-01T11:41:28.349Z,989.34
2018-03-01T11:42:34.437Z,989.28
2018-03-01T11:43:41.067Z,989.31
2018-03-01T11:44:46.724Z,989.13
2018-03-01T11:45:52.913Z,989.27
2018-03-01T11:46:59.024Z,989.23
2018-03-01T11:48:05.216Z,989.19
2018-03-01T11:49:11.440Z,989.20
2018-03-01T11:50:17.644Z,989.19
2018-03-01T11:51:23.936Z,989.20
2018-03-01T11:52:30.575Z,989.12
2018-03-01T11:53:36.320Z,989.21
2018-03-01T11:54:43.061Z,989.11
2018-03-01T11:55:49.362Z,989.04
2018-03-01T11:56:55.107Z,989.05
2018-03-01T11:58:01.922Z,988.95
2018-03-01T11:59:07.636Z,988.97
2018-03-01T12:00:14.442Z,988.96
2018-03-01T12:01:20.745Z,988.95
2018-03-01T12:02:27.011Z,988.92
2018-03-01T12:03:32.831Z,988.92
2018-03-01T12:04:39.141Z,988.90
2018-03-01T12:05:45.967Z,988.80
2018-03-01T12:06:52.275Z,988.67
2018-03-01T12:07:58.115Z,988.73
2018-03-01T12:09:04.431Z,988.68
2018-03-01T12:10:10.772Z,988.65
2018-03-01T12:11:17.120Z,988.58
2018-03-01T12:12:23.437Z,988.58
2018-03-01T12:13:29.782Z,988.57
2018-03-01T12:14:36.126Z,988.57
2018-03-01T12:15:42.495Z,988.56
2018-03-01T12:16:48.836Z,988.57
2018-03-01T12:17:55.198Z,988.46
2018-03-01T12:19:01.760Z,988.48
2018-03-01T12:20:07.938Z,988.51
2018-03-01T12:21:14.330Z,988.46
2018-03-01T12:22:20.691Z,988.48
2018-03-01T12:23:27.067Z,988.42
2018-03-01T12:24:33.957Z,988.35
2018-03-01T12:25:40.362Z,988.34
2018-03-01T12:26:46.244Z,988.32
2018-03-01T12:27:52.640Z,988.34
2018-03-01T12:28:59.052Z,988.29
2018-03-01T12:30:05.453Z,988.31
2018-03-01T12:31:11.949Z,988.29
2018-03-01T12:32:18.243Z,988.29
2018-03-01T12:33:24.652Z,988.30
2018-03-01T12:34:31.049Z,988.25
2018-03-01T12:35:37.470Z,988.20
2018-03-01T12:36:43.930Z,988.20
2018-03-01T12:37:50.256Z,988.09
2018-03-01T12:38:57.157Z,988.19
2018-03-01T12:40:03.063Z,988.16
2018-03-01T12:41:09.476Z,988.14
2018-03-01T12:42:15.931Z,988.08
2018-03-01T12:43:22.244Z,988.09
2018-03-01T12:44:28.642Z,988.02
2018-03-01T12:45:35.561Z,988.04
2018-03-01T12:46:41.445Z,988.04
2018-03-01T12:47:47.929Z,987.99
2018-03-01T12:48:54.225Z,988.01
2018-03-01T12:50:00.621Z,987.92
2018-03-01T12:51:07.029Z,987.97
2018-03-01T12:52:13.387Z,987.99
2018-03-01T12:53:19.785Z,988.01
2018-03-01T12:54:26.159Z,987.92
2018-03-01T12:55:32.556Z,988.04
2018-03-01T12:56:38.916Z,988.00
2018-03-01T12:57:45.315Z,987.98
2018-03-01T12:58:51.695Z,987.89
2018-03-01T12:59:58.086Z,987.95
2018-03-01T13:01:04.998Z,987.88
2018-03-01T13:02:10.865Z,987.85
2018-03-01T13:03:17.763Z,987.86
2018-03-01T13:04:24.165Z,987.83
2018-03-01T13:05:30.566Z,987.83
2018-03-01T13:06:36.460Z,987.80
2018-03-01T13:07:42.864Z,987.74
2018-03-01T13:08:49.269Z,987.72
2018-03-01T13:09:55.655Z,987.69
2018-03-01T13:11:02.098Z,987.57
2018-03-01T13:12:08.478Z,987.61
2018-03-01T13:13:14.897Z,987.51
2018-03-01T13:14:21.296Z,987.52
2018-03-01T13:15:27.711Z,987.52
2018-03-01T13:16:34.142Z,987.47
2018-03-01T13:17:41.036Z,987.47
2018-03-01T13:18:46.932Z,987.47
2018-03-01T13:19:53.365Z,987.47
2018-03-01T13:20:59.795Z,987.42
2018-03-01T13:22:06.178Z,987.50
2018-03-01T13:23:12.591Z,987.51
2018-03-01T13:24:19.502Z,987.50
2018-03-01T13:25:25.428Z,987.42
2018-03-01T13:26:31.948Z,987.38
2018-03-01T13:27:38.243Z,987.45
2018-03-01T13:28:45.138Z,987.45
2018-03-01T13:29:51.024Z,987.49
2018-03-01T13:30:57.502Z,987.49
2018-03-01T13:32:03.804Z,987.49
2018-03-01T13:33:10.194Z,987.52
2018-03-01T13:34:16.598Z,987.50
2018-03-01T13:35:22.997Z,987.55
2018-03-01T13:36:29.401Z,987.53
2018-03-01T13:37:36.268Z,987.57
2018-03-01T13:38:42.652Z,987.55
2018-03-01T13:39:48.618Z,987.56
2018-03-01T13:40:54.989Z,987.58
2018-03-01T13:42:01.325Z,987.57
2018-03-01T13:43:08.211Z,987.53
2018-03-01T13:44:14.109Z,987.59